Time;durP1;ratioP1;P1;durP2;ratioP2;P2;SDS_P1;SDS_P2;PMS_P1;PMS_P2;Temp;Humidity;BMP_temperature;BMP_pressure;BME280_temperature;BME280_humidity;BME280_pressure;Samples;Min_cycle;Max_cycle;Signal;HPM_P1;HPM_P2
2023/03/28 00:00:18;;;;;;;;;;;1.00;99.90;;;;;;5046193;28;19953;-68
2023/03/28 00:02:45;;;;;;;;;;;1.00;99.90;;;;;;5030570;28;19928;-69
2023/03/28 00:05:12;;;;;;;;;;;1.00;99.90;;;;;;5025984;28;19964;-68
2023/03/28 00:07:39;;;;;;;;;;;0.90;99.90;;;;;;5026930;28;19955;-69
2023/03/28 00:10:06;;;;;;;;;;;1.00;99.90;;;;;;5045611;28;20239;-69
2023/03/28 00:12:33;;;;;;;;;;;1.00;99.90;;;;;;5045446;28;19988;-69
2023/03/28 00:14:59;;;;;;;;;;;1.00;99.90;;;;;;5045324;28;19921;-68
2023/03/28 00:17:26;;;;;;;;;;;0.90;99.90;;;;;;5045270;28;20182;-68
2023/03/28 00:19:53;;;;;;;;;;;0.90;99.90;;;;;;5045686;28;19921;-69
2023/03/28 00:22:21;;;;;;;;;;;0.90;99.90;;;;;;5045622;28;20167;-68
2023/03/28 00:24:47;;;;;;;;;;;0.90;99.90;;;;;;5045336;28;19925;-68
2023/03/28 00:27:14;;;;;;;;;;;0.90;99.90;;;;;;5045124;28;19921;-68
2023/03/28 00:29:41;;;;;;;;;;;0.80;99.90;;;;;;5044325;28;20184;-68
2023/03/28 00:32:08;;;;;;;;;;;0.70;99.90;;;;;;5045534;28;19921;-68
2023/03/28 00:34:34;;;;;;;;;;;0.70;99.90;;;;;;5044932;28;20203;-69
2023/03/28 00:37:02;;;;;;;;;;;0.60;99.90;;;;;;5036102;28;19949;-69
2023/03/28 00:39:30;;;;;;;;;;;0.60;99.90;;;;;;5025750;28;19928;-68
2023/03/28 00:42:00;;;;;;;;;;;0.50;99.90;;;;;;5025516;28;19928;-68
2023/03/28 00:44:44;;;;;;;;;;;0.50;99.90;;;;;;5025077;28;19922;-68
2023/03/28 00:47:15;;;;;;;;;;;0.40;99.90;;;;;;5024073;28;19988;-69
2023/03/28 00:49:42;;;;;;;;;;;0.40;99.90;;;;;;5025405;28;19925;-69
2023/03/28 00:52:12;;;;;;;;;;;0.40;99.90;;;;;;5025225;28;19921;-69
2023/03/28 00:54:41;;;;;;;;;;;0.40;99.90;;;;;;5025108;28;19922;-68
2023/03/28 00:57:09;;;;;;;;;;;0.40;99.90;;;;;;5024948;28;20192;-69
2023/03/28 00:59:36;;;;;;;;;;;0.40;99.90;;;;;;5025042;28;19964;-69
2023/03/28 01:02:03;;;;;;;;;;;0.40;99.90;;;;;;5024952;28;19932;-69
2023/03/28 01:04:35;;;;;;;;;;;0.40;99.90;;;;;;5024497;28;19984;-68
2023/03/28 01:07:02;;;;;;;;;;;0.50;99.90;;;;;;5004916;28;19921;-68
2023/03/28 01:09:29;;;;;;;;;;;0.50;99.90;;;;;;5005346;28;20121;-69
2023/03/28 01:11:58;;;;;;;;;;;0.50;99.90;;;;;;5004926;28;20205;-69
2023/03/28 01:14:27;;;;;;;;;;;0.50;99.90;;;;;;5004907;28;19922;-69
2023/03/28 01:16:56;;;;;;;;;;;0.50;99.90;;;;;;5004974;28;19921;-68
2023/03/28 01:19:29;;;;;;;;;;;0.60;99.90;;;;;;5005152;28;19922;-69
2023/03/28 01:22:17;;;;;;;;;;;0.50;99.90;;;;;;5004883;28;19960;-69
2023/03/28 01:25:01;;;;;;;;;;;0.60;99.90;;;;;;5014085;28;19984;-69
2023/03/28 01:27:34;;;;;;;;;;;0.60;99.90;;;;;;5014094;28;19927;-70
2023/03/28 01:30:35;;;;;;;;;;;0.60;99.90;;;;;;5024176;28;19928;-68
2023/03/28 01:33:23;;;;;;;;;;;0.60;99.90;;;;;;4963909;28;19929;-69
2023/03/28 01:36:02;;;;;;;;;;;0.60;99.90;;;;;;4963707;29;19922;-70
2023/03/28 01:38:39;;;;;;;;;;;0.60;99.90;;;;;;4984411;28;20109;-69
2023/03/28 01:41:11;;;;;;;;;;;0.60;99.90;;;;;;5004403;28;19937;-68
2023/03/28 01:43:42;;;;;;;;;;;0.50;99.90;;;;;;5004604;28;19922;-69
2023/03/28 01:46:11;;;;;;;;;;;0.60;99.90;;;;;;5004525;28;19928;-69
2023/03/28 01:48:41;;;;;;;;;;;0.50;99.90;;;;;;5004690;28;19926;-69
2023/03/28 01:51:11;;;;;;;;;;;0.50;99.90;;;;;;5004301;28;20243;-69
2023/03/28 01:53:42;;;;;;;;;;;0.50;99.90;;;;;;5005110;28;19921;-69
2023/03/28 01:56:12;;;;;;;;;;;0.50;99.90;;;;;;5024029;28;20152;-69
2023/03/28 01:58:43;;;;;;;;;;;0.50;99.90;;;;;;5024191;28;19927;-69
2023/03/28 02:01:12;;;;;;;;;;;0.50;99.90;;;;;;5024036;28;20068;-70
2023/03/28 02:03:40;;;;;;;;;;;0.50;99.90;;;;;;5023520;28;19927;-68
2023/03/28 02:06:08;;;;;;;;;;;0.40;99.90;;;;;;5023761;28;20205;-69
2023/03/28 02:08:36;;;;;;;;;;;0.40;99.90;;;;;;5023993;28;19984;-68
2023/03/28 02:11:05;;;;;;;;;;;0.40;99.90;;;;;;5004333;28;19925;-69
2023/03/28 02:13:34;;;;;;;;;;;0.40;99.90;;;;;;5004189;28;19921;-69
2023/03/28 02:16:02;;;;;;;;;;;0.30;99.90;;;;;;5023313;28;19928;-69
2023/03/28 02:18:31;;;;;;;;;;;0.30;99.90;;;;;;5022827;28;19984;-69
2023/03/28 02:21:01;;;;;;;;;;;0.20;99.90;;;;;;5023879;28;19984;-69
2023/03/28 02:23:29;;;;;;;;;;;0.20;99.90;;;;;;5023458;28;19921;-70
2023/03/28 02:25:56;;;;;;;;;;;0.20;99.90;;;;;;5023543;28;19976;-69
2023/03/28 02:28:25;;;;;;;;;;;0.20;99.90;;;;;;5023673;28;19922;-69
2023/03/28 02:30:52;;;;;;;;;;;0.10;99.90;;;;;;5023759;28;19989;-68
2023/03/28 02:33:36;;;;;;;;;;;0.10;99.90;;;;;;5023417;28;19928;-68
2023/03/28 02:36:10;;;;;;;;;;;0.10;99.90;;;;;;5023964;28;19992;-68
2023/03/28 02:38:40;;;;;;;;;;;0.10;99.90;;;;;;5027827;28;19952;-68
2023/03/28 02:41:10;;;;;;;;;;;0.00;99.90;;;;;;5027932;28;19997;-68
2023/03/28 02:43:50;;;;;;;;;;;0.00;99.90;;;;;;5027682;28;19984;-68
2023/03/28 02:46:23;;;;;;;;;;;-0.10;99.90;;;;;;5027393;28;19928;-70
2023/03/28 02:49:00;;;;;;;;;;;-0.10;99.90;;;;;;5027433;28;19921;-68
2023/03/28 02:51:33;;;;;;;;;;;-0.10;99.90;;;;;;5027645;28;19927;-68
2023/03/28 02:54:03;;;;;;;;;;;-0.10;99.90;;;;;;5027264;28;19922;-69
2023/03/28 02:56:35;;;;;;;;;;;-0.10;99.90;;;;;;5026913;28;20129;-68
2023/03/28 02:59:06;;;;;;;;;;;-0.10;99.90;;;;;;5027177;28;19922;-68
2023/03/28 03:01:35;;;;;;;;;;;-0.20;99.90;;;;;;5027064;28;19922;-69
2023/03/28 03:04:02;;;;;;;;;;;-0.20;99.90;;;;;;5027223;28;19922;-68
2023/03/28 03:06:29;;;;;;;;;;;-0.20;99.90;;;;;;5011123;28;19928;-68
2023/03/28 03:08:56;;;;;;;;;;;-0.20;99.90;;;;;;5007390;28;20233;-69
2023/03/28 03:11:23;;;;;;;;;;;-0.30;99.90;;;;;;5007207;28;19985;-68
2023/03/28 03:13:50;;;;;;;;;;;-0.30;99.90;;;;;;5007434;28;19936;-69
2023/03/28 03:16:18;;;;;;;;;;;-0.30;99.90;;;;;;5007208;28;20109;-68
2023/03/28 03:18:45;;;;;;;;;;;-0.30;99.90;;;;;;5007222;28;19928;-69
2023/03/28 03:21:11;;;;;;;;;;;-0.30;99.90;;;;;;5007388;28;19922;-69
2023/03/28 03:23:38;;;;;;;;;;;-0.30;99.90;;;;;;5007321;28;19989;-69
2023/03/28 03:26:05;;;;;;;;;;;-0.30;99.90;;;;;;5024371;28;20232;-68
2023/03/28 03:28:32;;;;;;;;;;;-0.30;99.90;;;;;;5026944;28;19928;-68
2023/03/28 03:30:58;;;;;;;;;;;-0.30;99.90;;;;;;5026497;28;19921;-68
2023/03/28 03:33:26;;;;;;;;;;;-0.30;99.90;;;;;;5026520;28;19989;-69
2023/03/28 03:35:53;;;;;;;;;;;-0.30;99.90;;;;;;5026273;28;20120;-68
2023/03/28 03:38:20;;;;;;;;;;;-0.30;99.90;;;;;;5026161;28;20217;-69
2023/03/28 03:40:46;;;;;;;;;;;-0.30;99.90;;;;;;5026337;28;19985;-68
2023/03/28 03:43:13;;;;;;;;;;;-0.30;99.90;;;;;;5026653;28;19953;-69
2023/03/28 03:45:40;;;;;;;;;;;-0.20;99.90;;;;;;5026082;28;19971;-68
2023/03/28 03:48:06;;;;;;;;;;;-0.20;99.90;;;;;;5025524;28;19963;-69
2023/03/28 03:50:35;;;;;;;;;;;-0.20;99.90;;;;;;5026595;28;19928;-69
2023/03/28 03:53:01;;;;;;;;;;;-0.20;99.90;;;;;;5026493;28;19952;-68
2023/03/28 03:55:28;;;;;;;;;;;-0.20;99.90;;;;;;5026011;28;20208;-69
2023/03/28 03:57:54;;;;;;;;;;;-0.20;99.90;;;;;;5026094;28;19964;-68
2023/03/28 04:00:21;;;;;;;;;;;-0.20;99.90;;;;;;5026352;28;20001;-69
2023/03/28 04:02:48;;;;;;;;;;;-0.20;99.90;;;;;;5025828;28;20181;-70
2023/03/28 04:05:21;;;;;;;;;;;-0.20;99.90;;;;;;5025198;28;19927;-69
2023/03/28 04:07:49;;;;;;;;;;;-0.30;99.90;;;;;;5025893;28;19985;-69
2023/03/28 04:10:16;;;;;;;;;;;-0.20;99.90;;;;;;5026083;28;19921;-68
2023/03/28 04:12:43;;;;;;;;;;;-0.20;99.90;;;;;;5026029;28;19951;-68
2023/03/28 04:15:10;;;;;;;;;;;-0.20;99.90;;;;;;5025964;28;19957;-69
2023/03/28 04:17:36;;;;;;;;;;;-0.30;99.90;;;;;;5025614;28;19981;-69
2023/03/28 04:20:07;;;;;;;;;;;-0.20;99.90;;;;;;5025977;28;19964;-69
2023/03/28 04:22:37;;;;;;;;;;;-0.20;99.90;;;;;;5025885;28;20271;-68
2023/03/28 04:25:05;;;;;;;;;;;-0.20;99.90;;;;;;5025716;28;19944;-68
2023/03/28 04:27:32;;;;;;;;;;;-0.20;99.90;;;;;;5025331;28;20237;-69
2023/03/28 04:29:59;;;;;;;;;;;-0.20;99.90;;;;;;5025453;28;19927;-69
2023/03/28 04:32:26;;;;;;;;;;;-0.20;99.90;;;;;;5025726;28;19960;-68
2023/03/28 04:34:52;;;;;;;;;;;-0.20;99.90;;;;;;5025146;28;19925;-68
2023/03/28 04:37:19;;;;;;;;;;;-0.20;99.90;;;;;;5025025;28;19956;-68
2023/03/28 04:39:46;;;;;;;;;;;-0.20;99.90;;;;;;5025646;28;20162;-70
2023/03/28 04:42:15;;;;;;;;;;;-0.20;99.90;;;;;;5025193;28;19988;-70
2023/03/28 04:44:41;;;;;;;;;;;-0.20;99.90;;;;;;5025360;28;19921;-69
2023/03/28 04:47:10;;;;;;;;;;;-0.10;99.90;;;;;;5025250;28;19928;-69
2023/03/28 04:49:37;;;;;;;;;;;-0.20;99.90;;;;;;5025392;28;19992;-69
2023/03/28 04:52:03;;;;;;;;;;;-0.20;99.90;;;;;;5025179;28;19921;-69
2023/03/28 04:54:30;;;;;;;;;;;-0.30;99.90;;;;;;5025141;28;20260;-69
2023/03/28 04:56:57;;;;;;;;;;;-0.30;99.90;;;;;;5024927;28;19952;-69
2023/03/28 04:59:25;;;;;;;;;;;-0.40;99.90;;;;;;5022768;28;19953;-69
2023/03/28 05:01:51;;;;;;;;;;;-0.40;99.90;;;;;;5024675;28;19956;-69
2023/03/28 05:04:19;;;;;;;;;;;-0.40;99.90;;;;;;5025069;28;19960;-70
2023/03/28 05:06:45;;;;;;;;;;;-0.40;99.90;;;;;;5006614;28;19926;-69
2023/03/28 05:09:12;;;;;;;;;;;-0.50;99.90;;;;;;5005152;28;20392;-70
2023/03/28 05:11:39;;;;;;;;;;;-0.50;99.90;;;;;;5005428;28;19960;-69
2023/03/28 05:14:05;;;;;;;;;;;-0.50;99.90;;;;;;5005142;28;19921;-69
2023/03/28 05:16:33;;;;;;;;;;;-0.40;99.90;;;;;;5016252;28;19957;-69
2023/03/28 05:19:00;;;;;;;;;;;-0.40;99.90;;;;;;5024996;28;19984;-69
2023/03/28 05:21:27;;;;;;;;;;;-0.50;99.90;;;;;;5024847;28;19921;-70
2023/03/28 05:23:53;;;;;;;;;;;-0.50;99.90;;;;;;5024423;28;20102;-69
2023/03/28 05:26:20;;;;;;;;;;;-0.50;99.90;;;;;;5023939;28;19956;-69
2023/03/28 05:28:47;;;;;;;;;;;-0.50;99.90;;;;;;5024815;28;19956;-69
2023/03/28 05:31:15;;;;;;;;;;;-0.50;99.90;;;;;;5024541;28;19921;-68
2023/03/28 05:33:44;;;;;;;;;;;-0.50;99.90;;;;;;5007989;28;20125;-69
2023/03/28 05:36:11;;;;;;;;;;;-0.50;99.90;;;;;;5024243;28;19922;-69
2023/03/28 05:38:39;;;;;;;;;;;-0.50;99.90;;;;;;5023205;28;20228;-69
2023/03/28 05:41:06;;;;;;;;;;;-0.50;99.90;;;;;;5024224;28;19921;-69
2023/03/28 05:43:32;;;;;;;;;;;-0.50;99.90;;;;;;5024163;28;19922;-69
2023/03/28 05:45:59;;;;;;;;;;;-0.40;99.90;;;;;;5024235;28;19984;-70
2023/03/28 05:48:26;;;;;;;;;;;-0.40;99.90;;;;;;5004681;28;19989;-69
2023/03/28 05:50:54;;;;;;;;;;;-0.40;99.90;;;;;;5010703;28;19921;-69
2023/03/28 05:53:21;;;;;;;;;;;-0.40;99.90;;;;;;5024255;28;19975;-69
2023/03/28 05:55:48;;;;;;;;;;;-0.50;99.90;;;;;;5023730;28;19997;-69
2023/03/28 05:58:16;;;;;;;;;;;-0.40;99.90;;;;;;5023586;28;19937;-69
2023/03/28 06:00:43;;;;;;;;;;;-0.40;99.90;;;;;;5024320;28;19925;-69
2023/03/28 06:03:10;;;;;;;;;;;-0.30;99.90;;;;;;5023638;28;19928;-69
2023/03/28 06:05:37;;;;;;;;;;;-0.30;99.90;;;;;;5024026;28;19921;-69
2023/03/28 06:08:05;;;;;;;;;;;-0.30;99.90;;;;;;5023976;28;19928;-69
2023/03/28 06:10:32;;;;;;;;;;;-0.30;99.90;;;;;;5023739;28;19922;-69
2023/03/28 06:12:58;;;;;;;;;;;-0.30;99.90;;;;;;5016871;28;19945;-69
2023/03/28 06:15:25;;;;;;;;;;;-0.30;99.90;;;;;;5003972;28;19957;-69
2023/03/28 06:17:51;;;;;;;;;;;-0.30;99.90;;;;;;5004064;28;19981;-69
2023/03/28 06:20:18;;;;;;;;;;;-0.30;99.90;;;;;;5004253;28;19984;-69
2023/03/28 06:22:45;;;;;;;;;;;-0.30;99.90;;;;;;5004171;28;19929;-70
2023/03/28 06:25:21;;;;;;;;;;;-0.20;99.90;;;;;;5003113;28;19985;-69
2023/03/28 06:27:47;;;;;;;;;;;-0.20;99.90;;;;;;5003979;28;19926;-69
2023/03/28 06:30:14;;;;;;;;;;;-0.20;99.90;;;;;;5004158;28;19945;-69
2023/03/28 06:32:41;;;;;;;;;;;-0.20;99.90;;;;;;5003900;28;19922;-70
2023/03/28 06:35:08;;;;;;;;;;;-0.20;99.90;;;;;;5003811;28;20264;-69
2023/03/28 06:37:34;;;;;;;;;;;-0.10;99.90;;;;;;5017178;28;20192;-69
2023/03/28 06:40:02;;;;;;;;;;;0.00;99.90;;;;;;5024253;28;20117;-70
2023/03/28 06:42:29;;;;;;;;;;;0.00;99.90;;;;;;5025814;28;19921;-69
2023/03/28 06:44:56;;;;;;;;;;;0.00;99.90;;;;;;5025056;28;20213;-69
2023/03/28 06:47:24;;;;;;;;;;;0.20;99.90;;;;;;5023490;28;19921;-69
2023/03/28 06:49:50;;;;;;;;;;;0.20;99.90;;;;;;5024163;28;20003;-70
2023/03/28 06:52:22;;;;;;;;;;;0.30;99.90;;;;;;5022144;28;20157;-69
2023/03/28 06:54:48;;;;;;;;;;;0.30;99.90;;;;;;5021701;28;19933;-69
2023/03/28 06:57:15;;;;;;;;;;;0.40;99.90;;;;;;5022669;28;19983;-69
2023/03/28 06:59:43;;;;;;;;;;;0.40;99.90;;;;;;5023469;28;19922;-69
2023/03/28 07:02:10;;;;;;;;;;;0.50;99.90;;;;;;5023134;28;19929;-69
2023/03/28 07:04:37;;;;;;;;;;;0.60;99.90;;;;;;5025544;28;19930;-69
2023/03/28 07:07:03;;;;;;;;;;;0.60;99.90;;;;;;5022696;28;19922;-69
2023/03/28 07:09:30;;;;;;;;;;;0.70;99.90;;;;;;5023052;28;20283;-69
2023/03/28 07:11:57;;;;;;;;;;;0.70;99.90;;;;;;5023305;28;19925;-69
2023/03/28 07:14:24;;;;;;;;;;;0.80;99.90;;;;;;5020745;28;19927;-68
2023/03/28 07:16:52;;;;;;;;;;;0.80;99.90;;;;;;5022160;28;19928;-69
2023/03/28 07:19:19;;;;;;;;;;;0.90;99.90;;;;;;5023057;28;19956;-69
2023/03/28 07:21:46;;;;;;;;;;;0.90;99.90;;;;;;5023082;28;19921;-70
2023/03/28 07:24:13;;;;;;;;;;;0.90;99.90;;;;;;5021967;28;19952;-69
2023/03/28 07:26:40;;;;;;;;;;;1.00;99.90;;;;;;5025577;28;20094;-68
2023/03/28 07:29:07;;;;;;;;;;;1.00;99.90;;;;;;5026542;28;19921;-71
2023/03/28 07:31:33;;;;;;;;;;;1.10;99.90;;;;;;5026504;28;20223;-70
2023/03/28 07:34:01;;;;;;;;;;;1.20;99.90;;;;;;5026351;28;19928;-70
2023/03/28 07:36:30;;;;;;;;;;;1.20;99.90;;;;;;5023197;28;20169;-70
2023/03/28 07:38:57;;;;;;;;;;;1.30;99.90;;;;;;5026749;28;19922;-69
2023/03/28 07:41:23;;;;;;;;;;;1.30;99.90;;;;;;5026509;28;19930;-69
2023/03/28 07:43:50;;;;;;;;;;;1.40;99.90;;;;;;5026293;28;19980;-69
2023/03/28 07:46:17;;;;;;;;;;;1.40;99.90;;;;;;5025422;28;19964;-69
2023/03/28 07:48:45;;;;;;;;;;;1.50;99.90;;;;;;5026003;28;19988;-69
2023/03/28 07:51:13;;;;;;;;;;;1.50;99.90;;;;;;5026315;28;19930;-69
2023/03/28 07:53:40;;;;;;;;;;;1.60;99.90;;;;;;5026278;28;19972;-69
2023/03/28 07:56:10;;;;;;;;;;;1.60;99.90;;;;;;5025802;28;19992;-69
2023/03/28 07:58:37;;;;;;;;;;;1.60;99.90;;;;;;5025879;28;20216;-69
2023/03/28 08:01:05;;;;;;;;;;;1.60;99.90;;;;;;5026332;28;19947;-69
2023/03/28 08:03:31;;;;;;;;;;;1.70;99.90;;;;;;5025781;28;20201;-69
2023/03/28 08:06:01;;;;;;;;;;;1.70;99.90;;;;;;5025501;28;19992;-69
2023/03/28 08:08:31;;;;;;;;;;;1.80;99.90;;;;;;5023158;28;20240;-69
2023/03/28 08:10:58;;;;;;;;;;;1.80;99.90;;;;;;5026104;28;20086;-71
2023/03/28 08:13:27;;;;;;;;;;;1.90;99.90;;;;;;5023287;28;19960;-69
2023/03/28 08:15:54;;;;;;;;;;;2.00;99.90;;;;;;5025445;28;20001;-69
2023/03/28 08:18:23;;;;;;;;;;;2.10;99.90;;;;;;5025222;28;19928;-69
2023/03/28 08:20:50;;;;;;;;;;;2.20;99.90;;;;;;5025687;28;19921;-69
2023/03/28 08:23:17;;;;;;;;;;;2.20;99.90;;;;;;5025557;28;19922;-69
2023/03/28 08:25:46;;;;;;;;;;;2.30;99.90;;;;;;5024267;28;19929;-69
2023/03/28 08:28:13;;;;;;;;;;;2.40;99.90;;;;;;5021569;28;19926;-69
2023/03/28 08:30:39;;;;;;;;;;;2.40;99.90;;;;;;5025617;28;19929;-69
2023/03/28 08:33:06;;;;;;;;;;;2.40;99.90;;;;;;5025493;28;19956;-69
2023/03/28 08:35:33;;;;;;;;;;;2.40;99.90;;;;;;5025160;28;20288;-69
2023/03/28 08:38:00;;;;;;;;;;;2.50;99.90;;;;;;5025296;28;19953;-69
2023/03/28 08:40:27;;;;;;;;;;;2.50;99.90;;;;;;5025267;28;20209;-69
2023/03/28 08:43:01;;;;;;;;;;;2.60;99.90;;;;;;5025471;28;19921;-70
2023/03/28 08:45:32;;;;;;;;;;;2.60;99.90;;;;;;5025513;28;20086;-68
2023/03/28 08:48:02;;;;;;;;;;;2.60;99.90;;;;;;5025183;28;19925;-69
2023/03/28 08:50:31;;;;;;;;;;;2.70;99.90;;;;;;5025348;28;20172;-69
2023/03/28 08:52:59;;;;;;;;;;;2.80;99.90;;;;;;5025366;28;19926;-68
2023/03/28 08:55:30;;;;;;;;;;;2.80;99.90;;;;;;5024931;28;19985;-69
2023/03/28 08:57:58;;;;;;;;;;;2.80;99.90;;;;;;5024883;28;19936;-69
2023/03/28 09:00:27;;;;;;;;;;;2.90;99.90;;;;;;5025091;28;19928;-69
2023/03/28 09:02:53;;;;;;;;;;;3.00;99.90;;;;;;5024753;28;20260;-69
2023/03/28 09:05:25;;;;;;;;;;;3.10;99.90;;;;;;5024651;28;19928;-69
2023/03/28 09:07:54;;;;;;;;;;;3.10;99.90;;;;;;5024864;28;19925;-69
2023/03/28 09:10:23;;;;;;;;;;;3.30;99.90;;;;;;5024859;28;20209;-69
2023/03/28 09:12:56;;;;;;;;;;;3.30;99.90;;;;;;5024813;28;20252;-69
2023/03/28 09:15:44;;;;;;;;;;;3.30;99.90;;;;;;5022521;28;19922;-69
2023/03/28 09:18:21;;;;;;;;;;;3.40;99.90;;;;;;5021990;28;19941;-69
2023/03/28 09:20:52;;;;;;;;;;;3.60;99.90;;;;;;5025170;28;19925;-69
2023/03/28 09:23:28;;;;;;;;;;;3.60;99.90;;;;;;5028510;28;19922;-69
2023/03/28 09:25:59;;;;;;;;;;;3.70;99.90;;;;;;5021494;28;19981;-69
2023/03/28 09:28:33;;;;;;;;;;;3.80;99.90;;;;;;5022582;28;20111;-69
2023/03/28 09:31:02;;;;;;;;;;;4.00;99.90;;;;;;5023378;28;19928;-69
2023/03/28 09:33:30;;;;;;;;;;;4.00;99.90;;;;;;5021292;28;19981;-69
2023/03/28 09:35:57;;;;;;;;;;;4.00;99.90;;;;;;5020651;28;19944;-69
2023/03/28 09:38:25;;;;;;;;;;;4.10;99.90;;;;;;5024093;28;19928;-69
2023/03/28 09:40:53;;;;;;;;;;;4.10;99.90;;;;;;5023568;28;20220;-69
2023/03/28 09:43:25;;;;;;;;;;;4.00;99.90;;;;;;5022924;28;19921;-68
2023/03/28 09:45:57;;;;;;;;;;;4.10;99.90;;;;;;5022451;28;20217;-69
2023/03/28 09:48:28;;;;;;;;;;;4.10;99.90;;;;;;5024202;28;20273;-69
2023/03/28 09:50:55;;;;;;;;;;;4.20;99.90;;;;;;5023992;28;19928;-69
2023/03/28 09:53:23;;;;;;;;;;;4.10;99.90;;;;;;5021548;28;19988;-69
2023/03/28 09:55:50;;;;;;;;;;;4.00;99.90;;;;;;5024091;28;19928;-69
2023/03/28 09:58:17;;;;;;;;;;;4.00;99.90;;;;;;5023975;28;19927;-69
2023/03/28 10:00:46;;;;;;;;;;;4.10;99.90;;;;;;5024169;28;19956;-69
2023/03/28 10:03:21;;;;;;;;;;;4.20;99.90;;;;;;5023680;28;19927;-69
2023/03/28 10:05:50;;;;;;;;;;;4.40;99.90;;;;;;5023668;28;19928;-69
2023/03/28 10:08:28;;;;;;;;;;;4.50;99.90;;;;;;5023405;28;19922;-69
2023/03/28 10:10:56;;;;;;;;;;;4.60;99.90;;;;;;5016706;28;19925;-70
2023/03/28 10:13:23;;;;;;;;;;;4.80;99.90;;;;;;5023651;28;19980;-71
2023/03/28 10:15:50;;;;;;;;;;;4.90;99.90;;;;;;5023753;28;19929;-69
2023/03/28 10:18:17;;;;;;;;;;;5.00;99.90;;;;;;5041049;28;20152;-70
2023/03/28 10:20:44;;;;;;;;;;;5.00;99.90;;;;;;5043786;28;19987;-69
2023/03/28 10:23:13;;;;;;;;;;;5.10;99.90;;;;;;5033311;28;19979;-69
2023/03/28 10:25:41;;;;;;;;;;;5.10;99.90;;;;;;5023566;28;19921;-69
2023/03/28 10:28:13;;;;;;;;;;;5.10;99.90;;;;;;5023766;28;19922;-69
2023/03/28 10:30:40;;;;;;;;;;;5.20;99.90;;;;;;5023912;28;19922;-69
2023/03/28 10:33:20;;;;;;;;;;;5.30;99.90;;;;;;5023636;28;19921;-69
2023/03/28 10:35:48;;;;;;;;;;;5.50;99.90;;;;;;5023527;28;19944;-69
2023/03/28 10:38:16;;;;;;;;;;;5.60;99.90;;;;;;5023328;28;19925;-70
2023/03/28 10:40:50;;;;;;;;;;;5.80;99.90;;;;;;5023846;28;19928;-70
2023/03/28 10:43:17;;;;;;;;;;;5.80;99.90;;;;;;5023537;28;19921;-70
2023/03/28 10:45:45;;;;;;;;;;;5.90;99.90;;;;;;5023285;28;19988;-69
2023/03/28 10:48:14;;;;;;;;;;;6.10;99.90;;;;;;5023506;28;20036;-69
2023/03/28 10:50:43;;;;;;;;;;;6.40;99.90;;;;;;5023375;28;19927;-69
2023/03/28 10:53:18;;;;;;;;;;;6.60;99.90;;;;;;5023594;28;19984;-70
2023/03/28 10:55:53;;;;;;;;;;;6.70;99.90;;;;;;5023205;28;19944;-69
2023/03/28 10:58:24;;;;;;;;;;;6.70;99.90;;;;;;5024900;28;19928;-70
2023/03/28 11:00:55;;;;;;;;;;;6.80;99.90;;;;;;5027679;28;20001;-69
2023/03/28 11:03:30;;;;;;;;;;;6.80;99.90;;;;;;5027127;28;19981;-70
2023/03/28 11:06:00;;;;;;;;;;;6.90;99.90;;;;;;5027253;28;19944;-69
2023/03/28 11:08:39;;;;;;;;;;;6.80;99.90;;;;;;5026882;28;19988;-69
2023/03/28 11:11:12;;;;;;;;;;;6.80;99.90;;;;;;5007743;28;19922;-69
2023/03/28 11:13:45;;;;;;;;;;;6.80;99.90;;;;;;5007246;28;19989;-69
2023/03/28 11:16:18;;;;;;;;;;;6.90;99.90;;;;;;5014975;28;19921;-69
2023/03/28 11:18:53;;;;;;;;;;;6.90;99.90;;;;;;5029233;28;19928;-69
2023/03/28 11:21:24;;;;;;;;;;;7.00;99.90;;;;;;5028612;28;19927;-70
2023/03/28 11:23:54;;;;;;;;;;;7.00;99.90;;;;;;5027085;28;21203;-69
2023/03/28 11:26:24;;;;;;;;;;;7.10;99.90;;;;;;5026655;28;19996;-70
2023/03/28 11:29:02;;;;;;;;;;;7.20;99.90;;;;;;5026998;28;19928;-70
2023/03/28 11:31:32;;;;;;;;;;;6.90;99.90;;;;;;5027163;28;19922;-70
2023/03/28 11:34:00;;;;;;;;;;;6.80;99.90;;;;;;5020514;28;19922;-70
2023/03/28 11:36:31;;;;;;;;;;;6.60;99.90;;;;;;5018412;28;20112;-69
2023/03/28 11:39:00;;;;;;;;;;;6.50;99.90;;;;;;5026738;28;19921;-69
2023/03/28 11:41:32;;;;;;;;;;;6.50;99.90;;;;;;5026350;28;20094;-70
2023/03/28 11:44:00;;;;;;;;;;;6.70;99.90;;;;;;5025710;28;19921;-70
2023/03/28 11:46:29;;;;;;;;;;;7.10;99.90;;;;;;5024414;28;19928;-71
2023/03/28 11:49:02;;;;;;;;;;;7.40;99.90;;;;;;5026301;28;19922;-69
2023/03/28 11:51:32;;;;;;;;;;;7.40;99.90;;;;;;5025599;28;19944;-70
2023/03/28 11:54:01;;;;;;;;;;;7.40;99.90;;;;;;5024512;28;19921;-69
2023/03/28 11:56:41;;;;;;;;;;;7.20;99.90;;;;;;5025364;28;19984;-70
2023/03/28 11:59:12;;;;;;;;;;;7.20;99.90;;;;;;5005500;28;19989;-70
2023/03/28 12:01:40;;;;;;;;;;;7.40;99.90;;;;;;5019175;28;19921;-69
2023/03/28 12:04:11;;;;;;;;;;;7.70;99.90;;;;;;5026356;28;19960;-70
2023/03/28 12:06:42;;;;;;;;;;;7.70;99.90;;;;;;5025760;28;19944;-69
2023/03/28 12:09:12;;;;;;;;;;;7.60;99.90;;;;;;5025756;28;19989;-70
2023/03/28 12:11:41;;;;;;;;;;;7.50;99.90;;;;;;5022716;28;20009;-69
2023/03/28 12:14:16;;;;;;;;;;;7.20;99.90;;;;;;5018465;28;19929;-70
2023/03/28 12:16:45;;;;;;;;;;;7.10;99.90;;;;;;5025319;28;19928;-70
2023/03/28 12:19:13;;;;;;;;;;;7.10;99.90;;;;;;5024429;28;19929;-70
2023/03/28 12:21:42;;;;;;;;;;;7.10;99.90;;;;;;5025395;28;19921;-70
2023/03/28 12:24:12;;;;;;;;;;;7.10;99.90;;;;;;5025562;28;19949;-69
2023/03/28 12:26:53;;;;;;;;;;;7.00;99.90;;;;;;5025590;28;19925;-69
2023/03/28 12:29:24;;;;;;;;;;;7.00;99.90;;;;;;5025577;28;19921;-70
2023/03/28 12:31:55;;;;;;;;;;;7.30;99.90;;;;;;5025701;28;19921;-69
2023/03/28 12:34:25;;;;;;;;;;;7.60;99.90;;;;;;5025259;28;19965;-70
2023/03/28 12:36:54;;;;;;;;;;;7.70;99.90;;;;;;5019243;28;19921;-72
2023/03/28 12:39:33;;;;;;;;;;;8.00;99.90;;;;;;5020936;28;20189;-69
2023/03/28 12:42:00;;;;;;;;;;;8.10;99.90;;;;;;5025005;28;19922;-68
2023/03/28 12:44:29;;;;;;;;;;;8.40;99.90;;;;;;5020744;28;20116;-67
2023/03/28 12:46:58;;;;;;;;;;;8.70;99.90;;;;;;5022536;28;20215;-69
2023/03/28 12:49:31;;;;;;;;;;;9.00;99.90;;;;;;5018973;28;19927;-68
2023/03/28 12:52:00;;;;;;;;;;;9.00;99.90;;;;;;5024518;28;19953;-68
2023/03/28 12:54:27;;;;;;;;;;;9.00;99.90;;;;;;5025171;28;19922;-69
2023/03/28 12:57:04;;;;;;;;;;;8.90;99.90;;;;;;5025044;28;19921;-68
2023/03/28 12:59:46;;;;;;;;;;;8.40;99.90;;;;;;5025229;28;19921;-68
2023/03/28 13:02:16;;;;;;;;;;;8.40;99.90;;;;;;5022059;28;19921;-68
2023/03/28 13:04:46;;;;;;;;;;;8.30;99.90;;;;;;5024085;28;19985;-68
2023/03/28 13:07:17;;;;;;;;;;;8.20;99.90;;;;;;5024742;28;19985;-67
2023/03/28 13:09:52;;;;;;;;;;;8.50;99.90;;;;;;5024890;28;19922;-67
2023/03/28 13:12:23;;;;;;;;;;;8.70;99.90;;;;;;5024583;28;19992;-68
2023/03/28 13:14:57;;;;;;;;;;;9.00;99.90;;;;;;5024956;28;19921;-68
2023/03/28 13:17:26;;;;;;;;;;;9.10;99.90;;;;;;5024479;28;19984;-68
2023/03/28 13:19:54;;;;;;;;;;;9.10;99.90;;;;;;5024394;28;19928;-68
2023/03/28 13:22:26;;;;;;;;;;;9.30;99.90;;;;;;5023504;28;19928;-69
2023/03/28 13:24:53;;;;;;;;;;;9.30;99.90;;;;;;5024404;28;19928;-68
2023/03/28 13:27:28;;;;;;;;;;;9.60;99.90;;;;;;5024083;28;19925;-68
2023/03/28 13:29:59;;;;;;;;;;;9.90;99.90;;;;;;5023350;28;19922;-68
2023/03/28 13:32:32;;;;;;;;;;;10.40;99.90;;;;;;5024512;28;19921;-68
2023/03/28 13:35:02;;;;;;;;;;;10.50;98.60;;;;;;5024233;28;20240;-67
2023/03/28 13:37:37;;;;;;;;;;;10.60;98.90;;;;;;5023441;28;19921;-68
2023/03/28 13:40:06;;;;;;;;;;;10.50;98.70;;;;;;5023433;28;20234;-68
2023/03/28 13:42:33;;;;;;;;;;;10.80;97.50;;;;;;5022788;28;19935;-68
2023/03/28 13:45:02;;;;;;;;;;;11.00;97.90;;;;;;5023552;28;19921;-70
2023/03/28 13:47:33;;;;;;;;;;;11.20;96.50;;;;;;5023226;28;19927;-70
2023/03/28 13:50:02;;;;;;;;;;;11.30;95.80;;;;;;5019338;28;19927;-70
2023/03/28 13:52:28;;;;;;;;;;;11.20;97.00;;;;;;5024358;28;20004;-71
2023/03/28 13:55:02;;;;;;;;;;;10.90;96.00;;;;;;5023978;28;19949;-70
2023/03/28 13:57:29;;;;;;;;;;;10.90;96.40;;;;;;5022872;28;20267;-69
2023/03/28 13:59:57;;;;;;;;;;;10.90;96.50;;;;;;5024087;28;19922;-68
2023/03/28 14:02:32;;;;;;;;;;;10.50;96.10;;;;;;5023947;28;19972;-68
2023/03/28 14:05:10;;;;;;;;;;;10.20;96.90;;;;;;5023363;28;20362;-69
2023/03/28 14:07:37;;;;;;;;;;;10.30;97.70;;;;;;5023698;28;19927;-68
2023/03/28 14:10:19;;;;;;;;;;;10.40;96.20;;;;;;5023643;28;19922;-69
2023/03/28 14:12:45;;;;;;;;;;;10.40;95.80;;;;;;5023648;28;19922;-69
2023/03/28 14:15:13;;;;;;;;;;;10.40;94.60;;;;;;5023665;28;19922;-71
2023/03/28 14:17:41;;;;;;;;;;;10.30;94.70;;;;;;5023606;28;19922;-70
2023/03/28 14:20:15;;;;;;;;;;;10.20;94.50;;;;;;5023793;28;19928;-69
2023/03/28 14:22:41;;;;;;;;;;;10.20;94.30;;;;;;5023786;28;19925;-69
2023/03/28 14:25:11;;;;;;;;;;;9.80;93.10;;;;;;5023612;28;19960;-69
2023/03/28 14:27:38;;;;;;;;;;;9.90;95.20;;;;;;5023516;28;19922;-69
2023/03/28 14:30:16;;;;;;;;;;;9.90;93.80;;;;;;5023663;28;19985;-70
2023/03/28 14:32:53;;;;;;;;;;;10.10;95.70;;;;;;5023297;28;19960;-69
2023/03/28 14:35:21;;;;;;;;;;;10.30;94.80;;;;;;5023592;28;19922;-69
2023/03/28 14:37:48;;;;;;;;;;;10.20;95.10;;;;;;5023070;28;19928;-69